Terminal Aerodrome Forecast
Issued by NWS

Home | Current Version | Previous Version | Text Only | Print | Product List | Glossary On
Versions: 1 2 3 4 5 6 7 8 9 10 11 12 13 14 15
000
FTUS45 KTFX 211700
TAFGTF
TAF
KGTF 211733Z 2118/2218 25015KT P6SM VCSH SCT060 OVC080
      TEMPO 2118/2122 VRB25G35KT -TSRA BKN050CB
     FM220000 24015G25KT P6SM VCSH BKN060
     FM220500 22012KT P6SM SCT060 BKN120
     FM220900 21012KT P6SM SCT150=

USA.gov is the U.S. government's official web portal to all federal, state and local government web resources and services.